createdAt,value
2023-04-16T00:01:44.222Z,6.86
2023-04-16T00:04:47.776Z,6.96
2023-04-16T00:07:52.042Z,6.91
2023-04-16T00:10:55.648Z,7.03
2023-04-16T00:14:00.616Z,7.00
2023-04-16T00:17:04.066Z,6.92
2023-04-16T00:20:10.475Z,6.95
2023-04-16T00:23:14.053Z,7.09
2023-04-16T00:26:17.656Z,6.81
2023-04-16T00:29:23.996Z,6.83
2023-04-16T00:32:27.554Z,6.83
2023-04-16T00:35:31.179Z,6.90
2023-04-16T00:38:35.174Z,6.94
2023-04-16T00:41:40.088Z,6.70
2023-04-16T00:44:45.035Z,6.52
2023-04-16T00:47:48.681Z,6.73
2023-04-16T00:50:52.312Z,6.37
2023-04-16T00:53:56.175Z,6.47
2023-04-16T00:57:00.421Z,6.27
2023-04-16T01:00:06.311Z,6.47
2023-04-16T01:03:10.894Z,6.56
2023-04-16T01:06:15.065Z,6.53
2023-04-16T01:09:18.633Z,6.53
2023-04-16T01:12:22.095Z,6.40
2023-04-16T01:15:27.526Z,6.22
2023-04-16T01:18:31.212Z,6.33
2023-04-16T01:21:36.283Z,6.28
2023-04-16T01:24:40.664Z,6.24
2023-04-16T01:27:50.720Z,6.21
2023-04-16T01:30:54.307Z,6.22
2023-04-16T01:34:08.588Z,5.94
2023-04-16T01:37:13.742Z,5.79
2023-04-16T01:40:17.246Z,5.80
2023-04-16T01:43:20.802Z,5.82
2023-04-16T01:46:29.200Z,5.97
2023-04-16T01:49:33.916Z,5.97
2023-04-16T01:52:38.882Z,6.14
2023-04-16T01:55:42.925Z,6.28
2023-04-16T01:58:47.469Z,6.63
2023-04-16T02:01:53.053Z,6.42
2023-04-16T02:04:58.018Z,6.42
2023-04-16T02:08:02.908Z,6.45
2023-04-16T02:11:07.035Z,6.46
2023-04-16T02:14:11.022Z,6.57
2023-04-16T02:17:15.663Z,6.65
2023-04-16T02:20:20.850Z,6.54
2023-04-16T02:23:31.045Z,6.48
2023-04-16T02:26:35.892Z,6.60
2023-04-16T02:29:44.560Z,6.83
2023-04-16T02:32:51.584Z,6.77
2023-04-16T02:35:56.415Z,6.52
2023-04-16T02:39:01.644Z,6.79
2023-04-16T02:42:05.314Z,6.56
2023-04-16T02:45:10.387Z,6.59
2023-04-16T02:48:13.877Z,6.59
2023-04-16T02:51:17.629Z,6.68
2023-04-16T02:54:22.756Z,6.54
2023-04-16T02:57:26.171Z,6.35
2023-04-16T03:00:29.757Z,6.25
2023-04-16T03:03:33.645Z,6.47
2023-04-16T03:06:37.449Z,6.28
2023-04-16T03:09:42.419Z,6.01
2023-04-16T03:12:45.841Z,6.06
2023-04-16T03:15:52.428Z,6.19
2023-04-16T03:18:56.353Z,6.07
2023-04-16T03:21:59.776Z,5.83
2023-04-16T03:25:05.106Z,5.96
2023-04-16T03:28:08.686Z,5.97
2023-04-16T03:31:12.174Z,6.01
2023-04-16T03:34:16.102Z,6.13
2023-04-16T03:37:19.820Z,6.04
2023-04-16T03:40:25.180Z,6.25
2023-04-16T03:43:29.697Z,6.27
2023-04-16T03:46:33.240Z,6.41
2023-04-16T03:49:36.655Z,6.34
2023-04-16T03:52:40.146Z,6.22
2023-04-16T03:55:45.056Z,6.25
2023-04-16T03:58:48.653Z,6.44
2023-04-16T04:01:52.209Z,6.37
2023-04-16T04:04:56.043Z,6.65
2023-04-16T04:08:00.034Z,6.59
2023-04-16T04:11:07.088Z,6.48
2023-04-16T04:14:12.220Z,6.36
2023-04-16T04:17:15.798Z,6.25
2023-04-16T04:20:19.425Z,6.19
2023-04-16T04:23:24.093Z,6.13
2023-04-16T04:26:29.130Z,6.22
2023-04-16T04:29:33.438Z,6.19
2023-04-16T04:32:37.189Z,6.00
2023-04-16T04:35:40.529Z,6.18
2023-04-16T04:38:45.709Z,6.27
2023-04-16T04:41:50.824Z,6.23
2023-04-16T04:44:55.736Z,6.17
2023-04-16T04:48:00.637Z,6.17
2023-04-16T04:51:05.490Z,6.04
2023-04-16T04:54:09.891Z,6.17
2023-04-16T04:57:14.805Z,6.49
2023-04-16T05:00:18.384Z,6.45
2023-04-16T05:03:29.034Z,6.69
2023-04-16T05:06:32.854Z,6.89
2023-04-16T05:09:36.560Z,6.91
2023-04-16T05:12:41.643Z,6.86
2023-04-16T05:15:45.873Z,6.87
2023-04-16T05:18:49.198Z,6.75
2023-04-16T05:21:52.713Z,6.97
2023-04-16T05:24:56.542Z,6.88
2023-04-16T05:28:01.556Z,6.76
2023-04-16T05:31:05.247Z,6.81
2023-04-16T05:34:08.936Z,7.06
2023-04-16T05:37:12.408Z,6.94
2023-04-16T05:40:16.071Z,6.99
2023-04-16T05:43:20.980Z,6.98
2023-04-16T05:46:24.663Z,7.04
2023-04-16T05:49:27.994Z,7.31
2023-04-16T05:52:31.592Z,7.47
2023-04-16T05:55:36.125Z,7.23
2023-04-16T05:58:41.183Z,7.42
2023-04-16T06:01:47.880Z,7.51
2023-04-16T06:04:51.665Z,7.54
2023-04-16T06:07:56.101Z,7.32
2023-04-16T06:10:59.641Z,7.13
2023-04-16T06:14:04.913Z,7.04
2023-04-16T06:17:08.403Z,6.74
2023-04-16T06:20:13.646Z,7.09
2023-04-16T06:23:17.102Z,7.05
2023-04-16T06:26:21.047Z,7.01
2023-04-16T06:29:33.700Z,7.68
2023-04-16T06:32:44.681Z,7.66
2023-04-16T06:35:48.540Z,7.71
2023-04-16T06:38:51.934Z,7.66
2023-04-16T06:41:56.106Z,7.83
2023-04-16T06:45:01.186Z,8.00
2023-04-16T06:48:05.258Z,8.23
2023-04-16T06:51:09.338Z,7.96
2023-04-16T06:54:13.056Z,7.64
2023-04-16T06:57:16.564Z,7.84
2023-04-16T07:00:21.949Z,8.17
2023-04-16T07:03:25.726Z,7.97
2023-04-16T07:06:29.437Z,8.05
2023-04-16T07:09:32.950Z,8.18
2023-04-16T07:12:36.444Z,8.28
2023-04-16T07:15:41.449Z,8.23
2023-04-16T07:18:44.937Z,8.20
2023-04-16T07:21:48.422Z,8.12
2023-04-16T07:24:52.158Z,8.27
2023-04-16T07:27:55.597Z,8.52
2023-04-16T07:31:00.714Z,8.49
2023-04-16T07:34:04.807Z,8.34
2023-04-16T07:37:08.524Z,8.42
2023-04-16T07:40:12.807Z,8.48
2023-04-16T07:43:16.793Z,8.46
2023-04-16T07:46:22.103Z,8.43
2023-04-16T07:49:25.714Z,8.37
2023-04-16T07:52:29.197Z,8.62
2023-04-16T07:55:33.133Z,8.34
2023-04-16T07:58:36.748Z,8.45
2023-04-16T08:01:41.596Z,8.20
2023-04-16T08:04:45.640Z,8.46
2023-04-16T08:07:49.272Z,8.61
2023-04-16T08:10:55.897Z,8.65
2023-04-16T08:13:59.574Z,8.57
2023-04-16T08:17:04.547Z,8.89
2023-04-16T08:20:09.584Z,8.97
2023-04-16T08:23:14.064Z,9.30
2023-04-16T08:26:17.810Z,9.17
2023-04-16T08:29:21.600Z,9.28
2023-04-16T08:32:28.372Z,9.51
2023-04-16T08:35:31.800Z,9.75
2023-04-16T08:38:35.290Z,10.06
2023-04-16T08:41:42.542Z,9.88
2023-04-16T08:44:50.542Z,10.14
2023-04-16T08:47:57.808Z,10.17
2023-04-16T08:51:02.439Z,10.51
2023-04-16T08:54:09.878Z,9.67
2023-04-16T08:57:18.639Z,10.33
2023-04-16T09:00:22.637Z,10.70
2023-04-16T09:03:29.950Z,10.25
2023-04-16T09:06:35.282Z,10.54
2023-04-16T09:09:40.038Z,10.84
2023-04-16T09:12:44.046Z,10.54
2023-04-16T09:15:52.210Z,11.15
2023-04-16T09:18:57.150Z,11.49
2023-04-16T09:22:00.569Z,11.85
2023-04-16T09:25:04.562Z,11.75
2023-04-16T09:28:07.947Z,11.44
2023-04-16T09:31:12.847Z,11.71
2023-04-16T09:34:17.809Z,11.69
2023-04-16T09:37:21.626Z,12.74
2023-04-16T09:40:30.603Z,11.49
2023-04-16T09:43:34.232Z,11.58
2023-04-16T09:46:41.892Z,11.36
2023-04-16T09:49:47.113Z,12.20
2023-04-16T09:52:52.634Z,12.14
2023-04-16T09:55:59.134Z,12.08
2023-04-16T09:59:02.521Z,12.69
2023-04-16T10:02:14.876Z,12.70
2023-04-16T10:05:21.640Z,13.10
2023-04-16T10:08:25.752Z,12.80
2023-04-16T10:11:29.630Z,12.82
2023-04-16T10:14:33.969Z,12.19
2023-04-16T10:17:38.606Z,13.10
2023-04-16T10:20:44.143Z,13.39
2023-04-16T10:23:49.768Z,13.25
2023-04-16T10:26:53.743Z,13.31
2023-04-16T10:29:57.820Z,12.84
2023-04-16T10:33:03.358Z,13.87
2023-04-16T10:36:12.985Z,14.27
2023-04-16T10:39:20.292Z,14.09
2023-04-16T10:42:23.704Z,14.20
2023-04-16T10:45:32.446Z,13.42
2023-04-16T10:48:46.730Z,14.05
2023-04-16T10:51:59.634Z,14.92
2023-04-16T10:55:03.034Z,14.48
2023-04-16T10:58:28.552Z,14.35
2023-04-16T11:01:34.122Z,14.91
2023-04-16T11:04:39.310Z,14.83
2023-04-16T11:07:49.941Z,15.57
2023-04-16T11:10:53.949Z,15.32
2023-04-16T11:13:58.180Z,15.32
2023-04-16T11:17:05.111Z,15.89
2023-04-16T11:20:13.602Z,16.38
2023-04-16T11:23:25.059Z,16.24
2023-04-16T11:26:32.493Z,15.76
2023-04-16T11:29:36.125Z,15.26
2023-04-16T11:32:40.984Z,15.88
2023-04-16T11:35:46.122Z,16.01
2023-04-16T11:39:05.922Z,15.86
2023-04-16T11:42:12.195Z,15.46
2023-04-16T11:45:15.608Z,15.51
2023-04-16T11:48:22.173Z,14.71
2023-04-16T11:51:25.899Z,16.35
2023-04-16T11:54:34.993Z,16.13
2023-04-16T11:57:41.381Z,15.57
2023-04-16T12:00:45.464Z,14.79
2023-04-16T12:03:51.929Z,15.77
2023-04-16T12:07:09.440Z,15.84
2023-04-16T12:10:14.746Z,16.41
2023-04-16T12:13:19.783Z,16.82
2023-04-16T12:16:23.366Z,16.52
2023-04-16T12:19:27.023Z,16.20
2023-04-16T12:22:32.422Z,16.16
2023-04-16T12:25:43.821Z,15.56
2023-04-16T12:28:47.639Z,15.17
2023-04-16T12:31:53.737Z,15.49
2023-04-16T12:34:58.255Z,15.61
2023-04-16T12:38:06.039Z,15.59
2023-04-16T12:41:13.448Z,15.93
2023-04-16T12:44:21.888Z,16.29
2023-04-16T12:47:27.030Z,16.14
2023-04-16T12:50:33.414Z,15.35
2023-04-16T12:53:41.043Z,16.30
2023-04-16T12:56:46.041Z,16.12
2023-04-16T12:59:51.134Z,15.65
2023-04-16T13:02:59.821Z,16.38
2023-04-16T13:06:06.545Z,16.14
2023-04-16T13:09:10.758Z,16.23
2023-04-16T13:12:18.802Z,16.70
2023-04-16T13:15:22.174Z,16.66
2023-04-16T13:18:26.957Z,16.34
2023-04-16T13:21:33.292Z,16.85
2023-04-16T13:24:38.623Z,16.77
2023-04-16T13:27:46.054Z,16.30
2023-04-16T13:30:49.734Z,16.24
2023-04-16T13:33:54.727Z,16.97
2023-04-16T13:36:58.181Z,16.56
2023-04-16T13:40:01.972Z,15.73
2023-04-16T13:43:07.849Z,16.77
2023-04-16T13:46:12.583Z,17.30
2023-04-16T13:49:16.399Z,17.53
2023-04-16T13:52:23.276Z,16.86
2023-04-16T13:55:26.965Z,17.14
2023-04-16T13:58:32.510Z,17.25
2023-04-16T14:01:36.180Z,17.01
2023-04-16T14:04:39.769Z,16.59
2023-04-16T14:07:43.575Z,16.95
2023-04-16T14:10:47.360Z,17.31
2023-04-16T14:13:52.419Z,18.11
2023-04-16T14:16:56.216Z,16.90
2023-04-16T14:19:59.854Z,17.02
2023-04-16T14:23:04.054Z,16.99
2023-04-16T14:26:09.751Z,16.90
2023-04-16T14:29:16.236Z,16.03
2023-04-16T14:32:22.953Z,15.44
2023-04-16T14:35:26.864Z,15.77
2023-04-16T14:38:32.149Z,16.39
2023-04-16T14:41:35.806Z,15.87
2023-04-16T14:44:40.773Z,15.29
2023-04-16T14:47:47.768Z,15.54
2023-04-16T14:50:51.618Z,15.30
2023-04-16T14:53:55.370Z,15.15
2023-04-16T14:56:58.847Z,14.93
2023-04-16T15:00:07.703Z,15.10
2023-04-16T15:03:13.828Z,15.78
2023-04-16T15:06:22.401Z,16.03
2023-04-16T15:09:26.947Z,15.81
2023-04-16T15:12:30.547Z,16.09
2023-04-16T15:15:36.039Z,16.28
2023-04-16T15:18:43.967Z,16.02
2023-04-16T15:21:48.830Z,15.54
2023-04-16T15:24:54.202Z,15.04
2023-04-16T15:27:57.753Z,14.69
2023-04-16T15:31:02.904Z,14.99
2023-04-16T15:34:06.857Z,14.87
2023-04-16T15:37:10.613Z,15.36
2023-04-16T15:40:16.092Z,15.37
2023-04-16T15:43:19.771Z,14.78
2023-04-16T15:46:24.877Z,14.89
2023-04-16T15:49:33.586Z,15.20
2023-04-16T15:52:38.737Z,14.61
2023-04-16T15:55:43.936Z,14.51
2023-04-16T15:58:55.216Z,14.76
2023-04-16T16:02:01.796Z,14.58
2023-04-16T16:05:06.714Z,14.54
2023-04-16T16:08:10.556Z,14.28
2023-04-16T16:11:14.152Z,14.66
2023-04-16T16:14:18.710Z,14.55
2023-04-16T16:17:23.769Z,14.27
2023-04-16T16:20:27.663Z,13.97
2023-04-16T16:23:31.691Z,13.66
2023-04-16T16:26:35.215Z,13.83
2023-04-16T16:29:38.787Z,13.66
2023-04-16T16:32:44.538Z,13.47
2023-04-16T16:35:47.999Z,13.28
2023-04-16T16:38:51.435Z,13.19
2023-04-16T16:41:55.148Z,12.96
2023-04-16T16:44:58.602Z,12.82
2023-04-16T16:48:04.744Z,12.80
2023-04-16T16:51:11.222Z,12.49
2023-04-16T16:54:18.221Z,12.59
2023-04-16T16:57:21.936Z,12.42
2023-04-16T17:00:25.760Z,12.72
2023-04-16T17:03:31.167Z,12.70
2023-04-16T17:06:35.092Z,12.77
2023-04-16T17:09:38.957Z,12.84
2023-04-16T17:12:42.395Z,12.57
2023-04-16T17:15:47.308Z,12.44
2023-04-16T17:18:52.651Z,12.18
2023-04-16T17:21:56.581Z,11.94
2023-04-16T17:25:00.129Z,11.73
2023-04-16T17:28:04.262Z,11.67
2023-04-16T17:31:11.500Z,11.60
2023-04-16T17:34:19.932Z,11.29
2023-04-16T17:37:28.887Z,11.10
2023-04-16T17:40:32.429Z,11.21
2023-04-16T17:43:36.153Z,11.34
2023-04-16T17:46:39.804Z,11.15
2023-04-16T17:49:46.459Z,11.25
2023-04-16T17:52:49.999Z,11.45
2023-04-16T17:55:56.534Z,11.15
2023-04-16T17:59:01.639Z,11.24
2023-04-16T18:02:05.258Z,11.04
2023-04-16T18:05:11.786Z,10.91
2023-04-16T18:08:15.463Z,10.66
2023-04-16T18:11:18.926Z,10.65
2023-04-16T18:14:24.940Z,10.57
2023-04-16T18:17:29.814Z,10.78
2023-04-16T18:20:34.756Z,10.80
2023-04-16T18:23:40.190Z,10.76
2023-04-16T18:26:46.656Z,10.71
2023-04-16T18:29:51.403Z,10.65
2023-04-16T18:33:25.135Z,10.87
2023-04-16T18:36:20.015Z,10.66
2023-04-16T18:39:25.890Z,10.79
2023-04-16T18:42:29.490Z,10.68
2023-04-16T18:45:34.373Z,10.58
2023-04-16T18:48:37.973Z,10.80
2023-04-16T18:51:43.203Z,10.62
2023-04-16T18:54:47.191Z,10.50
2023-04-16T18:57:55.348Z,10.67
2023-04-16T19:01:02.033Z,10.70
2023-04-16T19:04:06.256Z,10.56
2023-04-16T19:07:11.629Z,10.45
2023-04-16T19:10:19.284Z,10.45
2023-04-16T19:13:24.429Z,10.25
2023-04-16T19:16:27.867Z,10.31
2023-04-16T19:19:31.242Z,10.17
2023-04-16T19:22:36.262Z,10.15
2023-04-16T19:25:41.006Z,9.87
2023-04-16T19:28:46.606Z,9.98
2023-04-16T19:31:50.023Z,9.86
2023-04-16T19:34:53.833Z,9.86
2023-04-16T19:37:58.861Z,9.98
2023-04-16T19:41:02.332Z,9.73
2023-04-16T19:44:07.102Z,9.76
2023-04-16T19:47:10.783Z,9.63
2023-04-16T19:50:17.442Z,9.70
2023-04-16T19:53:22.413Z,9.65
2023-04-16T19:56:26.459Z,9.67
2023-04-16T19:59:30.301Z,9.66
2023-04-16T20:02:33.730Z,9.54
2023-04-16T20:05:37.694Z,9.53
2023-04-16T20:08:42.664Z,9.61
2023-04-16T20:11:46.338Z,9.62
2023-04-16T20:14:53.200Z,9.36
2023-04-16T20:17:59.215Z,9.42
2023-04-16T20:21:05.595Z,9.28
2023-04-16T20:24:11.445Z,9.27
2023-04-16T20:27:15.635Z,9.29
2023-04-16T20:30:19.179Z,9.26
2023-04-16T20:33:24.432Z,9.28
2023-04-16T20:36:28.612Z,9.24
2023-04-16T20:39:34.707Z,9.30
2023-04-16T20:42:38.123Z,9.02
2023-04-16T20:45:42.010Z,8.70
2023-04-16T20:48:45.859Z,8.91
2023-04-16T20:51:49.348Z,8.97
2023-04-16T20:54:55.677Z,9.26
2023-04-16T20:58:02.070Z,9.12
2023-04-16T21:01:07.241Z,8.66
2023-04-16T21:04:11.051Z,8.99
2023-04-16T21:07:14.865Z,8.76
2023-04-16T21:10:20.499Z,8.90
2023-04-16T21:13:31.526Z,8.83
2023-04-16T21:16:35.084Z,8.86
2023-04-16T21:19:40.338Z,8.93
2023-04-16T21:22:52.409Z,8.99
2023-04-16T21:25:58.249Z,9.07
2023-04-16T21:29:01.841Z,9.01
2023-04-16T21:32:05.992Z,8.79
2023-04-16T21:35:11.670Z,8.67
2023-04-16T21:38:15.152Z,8.64
2023-04-16T21:41:20.472Z,8.73
2023-04-16T21:44:24.065Z,8.76
2023-04-16T21:47:27.747Z,9.08
2023-04-16T21:50:31.540Z,8.89
2023-04-16T21:53:35.733Z,8.78
2023-04-16T21:56:40.960Z,8.48
2023-04-16T21:59:44.645Z,8.23
2023-04-16T22:02:50.457Z,8.19
2023-04-16T22:06:01.057Z,8.25
2023-04-16T22:09:05.189Z,8.29
2023-04-16T22:12:13.065Z,8.43
2023-04-16T22:15:18.575Z,8.38
2023-04-16T22:18:24.433Z,8.49
2023-04-16T22:21:28.071Z,8.42
2023-04-16T22:24:31.959Z,8.41
2023-04-16T22:27:39.237Z,8.22
2023-04-16T22:30:42.723Z,7.99
2023-04-16T22:33:46.140Z,7.81
2023-04-16T22:36:50.038Z,7.84
2023-04-16T22:39:56.605Z,7.89
2023-04-16T22:43:04.597Z,7.88
2023-04-16T22:46:09.532Z,7.93
2023-04-16T22:49:13.264Z,7.73
2023-04-16T22:52:16.950Z,7.72
2023-04-16T22:55:20.962Z,7.56
2023-04-16T22:58:27.016Z,7.64
2023-04-16T23:01:30.965Z,7.55
2023-04-16T23:04:41.892Z,7.60
2023-04-16T23:07:49.316Z,7.61
2023-04-16T23:10:53.194Z,7.67
2023-04-16T23:13:58.932Z,7.78
2023-04-16T23:17:05.995Z,7.39
2023-04-16T23:20:10.809Z,7.48
2023-04-16T23:23:14.202Z,7.07
2023-04-16T23:26:18.707Z,7.03
2023-04-16T23:29:24.152Z,6.79
2023-04-16T23:32:27.739Z,6.52
2023-04-16T23:35:31.722Z,6.29
2023-04-16T23:38:35.664Z,6.66
2023-04-16T23:41:39.156Z,6.53
2023-04-16T23:44:44.173Z,6.40
2023-04-16T23:47:48.603Z,6.21
2023-04-16T23:50:52.204Z,6.16
2023-04-16T23:53:55.683Z,6.10
2023-04-16T23:56:59.205Z,6.17
